TLPL/UVF METAR and TAF weather

Enter ICAO airport designator
Station Type Date Time Source
TLPL METAR 2021/04/18 03:00 UTC NOAA

TLPL 180300Z 07014KT 9999 SCT025 27/21 Q1016 NOSIG


Station Type Date Time Source
TLPL Decoded METAR 2021/04/18 03:00 UTC NOAA

Hewanorra International Airport, Saint Lucia (TLPL) 13-45N 060-57W 10M
Apr 17, 2021 - 11:00 PM EDT / 2021.04.18 0300 UTC
Wind: from the ENE (070 degrees) at 16 MPH (14 KT):0
Visibility: greater than 7 mile(s):0
Sky conditions: partly cloudy
Temperature: 80 F (27 C)
Dew Point: 69 F (21 C)
Relative Humidity: 69%
Pressure (altimeter): 30.00 in. Hg (1016 hPa)
ob: TLPL 180300Z 07014KT 9999 SCT025 27/21 Q1016 NOSIG
cycle: 3

Station Type Date Time Source
TLPL TAF 2021/04/17 18:04 UTC NOAA

TAF TLPL 171700Z 1718/1818 08015KT 9999 SCT027

Example: see airport list